Time;durP1;ratioP1;P1;durP2;ratioP2;P2;SDS_P1;SDS_P2;PMS_P1;PMS_P2;Temp;Humidity;BMP_temperature;BMP_pressure;BME280_temperature;BME280_humidity;BME280_pressure;Samples;Min_cycle;Max_cycle;Signal;HPM_P1;HPM_P2
2023/12/08 00:02:09;;;;;;;294.80;154.90;;;;;;;-1.25;100.00;98108.45;109554;1274;22277;-75
2023/12/08 00:04:37;;;;;;;293.40;150.00;;;;;;;-1.32;100.00;98113.31;109567;1283;22214;-76
2023/12/08 00:07:05;;;;;;;290.40;147.00;;;;;;;-1.34;100.00;98117.35;109564;1290;22947;-76
2023/12/08 00:09:33;;;;;;;284.40;150.50;;;;;;;-1.34;100.00;98117.44;109575;1290;22197;-75
2023/12/08 00:12:01;;;;;;;288.20;145.90;;;;;;;-1.30;100.00;98116.91;109558;1283;22348;-75
2023/12/08 00:14:29;;;;;;;284.10;153.60;;;;;;;-1.29;100.00;98113.52;109577;1286;23100;-76
2023/12/08 00:16:57;;;;;;;291.20;157.30;;;;;;;-1.31;100.00;98111.42;109570;1286;22148;-76
2023/12/08 00:19:25;;;;;;;301.50;157.70;;;;;;;-1.35;100.00;98119.84;109584;1283;23152;-76
2023/12/08 00:21:53;;;;;;;290.90;152.90;;;;;;;-1.36;100.00;98121.96;109459;1290;22246;-74
2023/12/08 00:24:21;;;;;;;289.20;151.00;;;;;;;-1.34;100.00;98124.02;109555;1282;22222;-74
2023/12/08 00:26:49;;;;;;;298.40;150.70;;;;;;;-1.32;100.00;98122.63;109565;1284;22196;-76
2023/12/08 00:29:20;;;;;;;289.70;147.50;;;;;;;-1.27;100.00;98123.09;109585;1290;22285;-75
2023/12/08 00:31:48;;;;;;;276.50;146.30;;;;;;;-1.26;100.00;98126.19;109614;1290;22123;-75
2023/12/08 00:34:17;;;;;;;288.50;152.40;;;;;;;-1.24;100.00;98124.98;109619;1282;22250;-74
2023/12/08 00:36:46;;;;;;;288.80;155.10;;;;;;;-1.21;100.00;98135.24;109586;1283;22360;-75
2023/12/08 00:39:14;;;;;;;308.40;158.30;;;;;;;-1.17;100.00;98141.29;109620;1283;22906;-76
2023/12/08 00:41:42;;;;;;;295.10;154.00;;;;;;;-1.19;100.00;98144.80;109559;1283;22152;-75
2023/12/08 00:44:11;;;;;;;299.20;151.70;;;;;;;-1.17;100.00;98147.67;109507;1283;23163;-75
2023/12/08 00:46:39;;;;;;;294.60;150.50;;;;;;;-1.18;100.00;98149.64;109559;1290;22226;-75
2023/12/08 00:49:07;;;;;;;308.40;154.90;;;;;;;-1.15;100.00;98152.25;109559;1290;22216;-75
2023/12/08 00:51:35;;;;;;;290.80;149.90;;;;;;;-1.13;100.00;98151.75;109593;1283;22295;-76
2023/12/08 00:54:03;;;;;;;285.60;150.10;;;;;;;-1.12;100.00;98148.47;109598;1276;22143;-75
2023/12/08 00:56:31;;;;;;;304.40;162.50;;;;;;;-1.09;100.00;98149.86;109584;1290;22952;-77
2023/12/08 00:58:59;;;;;;;305.30;161.70;;;;;;;-1.08;100.00;98146.05;109558;1283;22249;-75
2023/12/08 01:01:27;;;;;;;308.60;152.60;;;;;;;-1.10;100.00;98138.36;109474;1277;22737;-75
2023/12/08 01:03:55;;;;;;;300.80;151.40;;;;;;;-1.10;100.00;98135.36;109590;1282;22323;-75
2023/12/08 01:06:23;;;;;;;297.00;150.20;;;;;;;-1.07;100.00;98135.45;109554;1280;22364;-76
2023/12/08 01:08:51;;;;;;;295.20;151.70;;;;;;;-1.04;100.00;98138.92;109552;1286;22394;-76
2023/12/08 01:11:19;;;;;;;298.70;153.60;;;;;;;-1.03;100.00;98132.77;109586;1283;22265;-77
2023/12/08 01:13:47;;;;;;;298.90;152.50;;;;;;;-1.00;100.00;98137.39;109592;1280;22203;-76
2023/12/08 01:16:15;;;;;;;304.10;157.60;;;;;;;-1.01;100.00;98131.94;109594;1290;23105;-76
2023/12/08 01:18:43;;;;;;;308.60;163.50;;;;;;;-1.03;100.00;98130.90;109445;1279;206001;-76
2023/12/08 01:21:12;;;;;;;329.00;171.20;;;;;;;-1.04;100.00;98131.89;109587;1280;22133;-77
2023/12/08 01:23:40;;;;;;;309.30;154.90;;;;;;;-1.05;100.00;98129.49;109605;1277;22239;-76
2023/12/08 01:26:11;;;;;;;299.70;153.70;;;;;;;-1.06;100.00;98121.77;109604;1277;22212;-77
2023/12/08 01:28:39;;;;;;;292.60;149.70;;;;;;;-1.02;100.00;98127.88;109580;1286;22244;-76
2023/12/08 01:31:07;;;;;;;296.00;152.90;;;;;;;-1.03;100.00;98128.34;109608;1282;22140;-76
2023/12/08 01:33:35;;;;;;;311.50;158.00;;;;;;;-1.01;100.00;98127.67;109566;1286;22300;-76
2023/12/08 01:36:04;;;;;;;320.40;165.70;;;;;;;-1.02;100.00;98129.95;109595;1275;22215;-76
2023/12/08 01:38:52;;;;;;;325.60;165.50;;;;;;;-1.04;100.00;98123.59;109571;1286;22314;-76
2023/12/08 01:41:21;;;;;;;337.00;171.50;;;;;;;-1.05;100.00;98119.48;109566;1279;22329;-76
2023/12/08 01:43:49;;;;;;;317.70;162.30;;;;;;;-1.04;100.00;98118.05;109560;1287;22130;-76
2023/12/08 01:46:21;;;;;;;315.50;156.90;;;;;;;-1.04;100.00;98114.34;109589;1284;22303;-75
2023/12/08 01:48:50;;;;;;;312.40;155.50;;;;;;;-1.02;100.00;98113.92;109513;1290;22251;-76
2023/12/08 01:51:19;;;;;;;309.60;151.20;;;;;;;-0.98;100.00;98116.11;109594;1276;22245;-76
2023/12/08 01:53:47;;;;;;;311.80;155.90;;;;;;;-0.94;100.00;98119.67;109573;1274;22148;-76
2023/12/08 01:56:15;;;;;;;340.80;167.50;;;;;;;-0.97;100.00;98117.89;109593;1289;22221;-76
2023/12/08 01:58:44;;;;;;;325.10;160.60;;;;;;;-0.99;100.00;98113.20;109575;1279;22221;-76
2023/12/08 02:01:12;;;;;;;350.70;169.80;;;;;;;-1.04;100.00;98113.30;109600;1290;22138;-75
2023/12/08 02:03:41;;;;;;;342.40;163.40;;;;;;;-1.07;100.00;98107.91;109597;1279;22364;-75
2023/12/08 02:06:09;;;;;;;326.50;156.20;;;;;;;-1.11;100.00;98109.73;109594;1290;22269;-76
2023/12/08 02:08:38;;;;;;;323.30;152.40;;;;;;;-1.12;100.00;98114.95;109576;1286;22842;-76
2023/12/08 02:11:06;;;;;;;313.30;153.70;;;;;;;-1.10;100.00;98107.12;109608;1286;22877;-76
2023/12/08 02:13:34;;;;;;;307.10;151.30;;;;;;;-1.03;100.00;98109.13;109589;1287;22256;-75
2023/12/08 02:16:08;;;;;;;303.80;150.40;;;;;;;-1.03;100.00;98107.49;109589;1290;22108;-75
2023/12/08 02:18:38;;;;;;;316.10;153.70;;;;;;;-1.05;100.00;98104.56;109582;1290;22096;-75
2023/12/08 02:21:08;;;;;;;301.50;148.30;;;;;;;-1.08;100.00;98101.09;109590;1290;22242;-75
2023/12/08 02:23:36;;;;;;;283.20;140.30;;;;;;;-1.14;100.00;98102.19;109576;1283;22303;-75
2023/12/08 02:26:05;;;;;;;273.30;136.80;;;;;;;-1.16;100.00;98102.95;109575;1287;22217;-75
2023/12/08 02:28:33;;;;;;;258.90;134.50;;;;;;;-1.13;100.00;98101.98;109567;1276;22145;-75
2023/12/08 02:31:04;;;;;;;252.00;132.60;;;;;;;-1.08;100.00;98099.09;109578;1275;22198;-75
2023/12/08 02:33:33;;;;;;;251.20;134.20;;;;;;;-1.03;100.00;98097.91;109583;1279;23051;-77
2023/12/08 02:36:04;;;;;;;244.60;129.00;;;;;;;-1.01;100.00;98101.88;109584;1274;22240;-76
2023/12/08 02:38:33;;;;;;;238.60;127.10;;;;;;;-1.05;100.00;98106.91;109506;1273;22115;-75
2023/12/08 02:41:02;;;;;;;249.30;130.90;;;;;;;-1.06;100.00;98105.88;109484;1290;22361;-75
2023/12/08 02:43:30;;;;;;;243.80;124.70;;;;;;;-1.07;100.00;98104.24;109592;1283;22236;-76
2023/12/08 02:45:58;;;;;;;229.90;120.90;;;;;;;-1.03;100.00;98110.71;109569;1280;22169;-76
2023/12/08 02:48:26;;;;;;;223.30;118.30;;;;;;;-0.97;100.00;98111.74;109572;1286;22227;-76
2023/12/08 02:50:54;;;;;;;217.90;121.80;;;;;;;-0.89;100.00;98109.23;109578;1279;22205;-76
2023/12/08 02:53:22;;;;;;;219.50;119.70;;;;;;;-0.85;100.00;98109.98;109566;1286;22149;-76
2023/12/08 02:55:50;;;;;;;225.90;121.30;;;;;;;-0.90;100.00;98110.14;109579;1290;22231;-76
2023/12/08 02:58:18;;;;;;;225.70;121.10;;;;;;;-0.96;100.00;98106.91;109588;1274;23122;-76
2023/12/08 03:00:46;;;;;;;236.90;124.80;;;;;;;-0.99;100.00;98109.34;109545;1286;22220;-76
2023/12/08 03:03:14;;;;;;;211.90;116.30;;;;;;;-1.02;100.00;98106.61;109573;1276;22218;-76
2023/12/08 03:05:42;;;;;;;209.30;112.00;;;;;;;-0.99;100.00;98110.00;109572;1286;22277;-76
2023/12/08 03:08:10;;;;;;;209.60;113.40;;;;;;;-0.93;100.00;98111.77;109477;1274;22263;-76
2023/12/08 03:10:38;;;;;;;187.00;105.70;;;;;;;-0.83;100.00;98112.02;109590;1284;23026;-76
2023/12/08 03:13:06;;;;;;;184.40;105.80;;;;;;;-0.83;100.00;98110.48;109573;1290;22192;-77
2023/12/08 03:15:34;;;;;;;185.90;108.50;;;;;;;-0.82;100.00;98112.09;109544;1279;22280;-76
2023/12/08 03:18:02;;;;;;;190.60;108.30;;;;;;;-0.82;100.00;98115.84;109548;1286;22824;-75
2023/12/08 03:20:30;;;;;;;193.10;114.70;;;;;;;-0.83;100.00;98116.55;109585;1274;23089;-75
2023/12/08 03:22:59;;;;;;;195.00;108.90;;;;;;;-0.81;100.00;98113.75;109570;1280;23138;-75
2023/12/08 03:25:27;;;;;;;176.10;102.30;;;;;;;-0.82;100.00;98118.73;109516;1286;22327;-75
2023/12/08 03:27:55;;;;;;;170.60;100.70;;;;;;;-0.83;100.00;98119.98;109551;1290;22195;-75
2023/12/08 03:30:23;;;;;;;176.60;104.20;;;;;;;-0.83;100.00;98118.46;109553;1290;22986;-75
2023/12/08 03:32:51;;;;;;;185.60;108.50;;;;;;;-0.82;100.00;98118.64;109587;1286;22255;-75
2023/12/08 03:35:20;;;;;;;184.40;107.70;;;;;;;-0.80;100.00;98116.06;109554;1279;22809;-76
2023/12/08 03:37:48;;;;;;;192.90;110.40;;;;;;;-0.80;100.00;98117.64;109559;1286;22245;-75
2023/12/08 03:40:16;;;;;;;186.40;110.60;;;;;;;-0.82;100.00;98115.23;109579;1286;22185;-76
2023/12/08 03:42:44;;;;;;;192.90;108.00;;;;;;;-0.85;100.00;98109.97;109564;1286;22903;-75
2023/12/08 03:45:12;;;;;;;185.80;106.60;;;;;;;-0.85;100.00;98107.48;109454;1285;22214;-75
2023/12/08 03:47:40;;;;;;;187.80;107.90;;;;;;;-0.83;100.00;98109.50;109546;1280;22270;-75
2023/12/08 03:50:09;;;;;;;184.40;106.80;;;;;;;-0.81;100.00;98105.17;109543;1286;22163;-76
2023/12/08 03:52:37;;;;;;;180.90;103.80;;;;;;;-0.80;100.00;98101.61;109551;1284;22831;-76
2023/12/08 03:55:05;;;;;;;184.20;107.00;;;;;;;-0.84;100.00;98098.15;109525;1290;22396;-76
2023/12/08 03:57:33;;;;;;;178.20;102.50;;;;;;;-0.83;100.00;98101.77;109604;1274;23172;-75
2023/12/08 04:00:01;;;;;;;167.10;99.40;;;;;;;-0.88;100.00;98098.56;109561;1286;22857;-75
2023/12/08 04:02:31;;;;;;;157.80;91.80;;;;;;;-0.94;100.00;98097.40;109586;1286;22899;-75
2023/12/08 04:04:59;;;;;;;152.10;90.10;;;;;;;-0.97;100.00;98092.64;109468;1288;23037;-75
2023/12/08 04:07:27;;;;;;;145.60;88.60;;;;;;;-0.97;100.00;98086.13;109572;1279;22294;-75
2023/12/08 04:09:55;;;;;;;124.80;83.70;;;;;;;-1.00;100.00;98077.08;109580;1280;22194;-75
2023/12/08 04:12:23;;;;;;;132.70;86.60;;;;;;;-1.03;100.00;98074.02;109559;1286;22223;-74
2023/12/08 04:14:51;;;;;;;139.80;88.30;;;;;;;-1.06;100.00;98073.08;109578;1279;22138;-74
2023/12/08 04:17:19;;;;;;;152.30;95.70;;;;;;;-1.09;100.00;98066.67;109577;1284;22197;-74
2023/12/08 04:19:47;;;;;;;145.60;89.80;;;;;;;-1.12;100.00;98065.16;109562;1279;22151;-75
2023/12/08 04:22:15;;;;;;;139.60;86.30;;;;;;;-1.16;100.00;98061.14;109567;1286;22227;-75
2023/12/08 04:24:43;;;;;;;145.70;88.90;;;;;;;-1.20;100.00;98062.76;109573;1281;22267;-75
2023/12/08 04:27:11;;;;;;;143.90;88.50;;;;;;;-1.23;100.00;98061.23;109550;1286;22223;-76
2023/12/08 04:29:39;;;;;;;141.00;87.70;;;;;;;-1.24;100.00;98054.45;109572;1286;22352;-76
2023/12/08 04:32:07;;;;;;;142.70;88.40;;;;;;;-1.23;100.00;98055.59;109582;1290;22938;-75
2023/12/08 04:34:35;;;;;;;149.30;89.80;;;;;;;-1.24;100.00;98057.47;109549;1284;22222;-76
2023/12/08 04:37:04;;;;;;;156.40;95.50;;;;;;;-1.26;100.00;98057.40;109588;1288;22235;-75
2023/12/08 04:39:32;;;;;;;166.50;100.00;;;;;;;-1.30;100.00;98054.89;109567;1283;23553;-75
2023/12/08 04:42:00;;;;;;;187.40;104.90;;;;;;;-1.36;100.00;98052.45;109594;1283;22215;-75
2023/12/08 04:44:29;;;;;;;194.50;108.00;;;;;;;-1.39;100.00;98053.38;109582;1284;22427;-76
2023/12/08 04:46:56;;;;;;;188.20;104.60;;;;;;;-1.39;100.00;98053.74;109522;1290;22220;-75
2023/12/08 04:49:25;;;;;;;192.50;109.00;;;;;;;-1.37;100.00;98053.73;109572;1290;22946;-76
2023/12/08 04:51:53;;;;;;;197.50;111.70;;;;;;;-1.40;100.00;98051.64;109599;1283;22485;-75
2023/12/08 04:54:21;;;;;;;201.80;113.50;;;;;;;-1.43;100.00;98052.13;109558;1288;22211;-75
2023/12/08 04:56:49;;;;;;;210.10;118.00;;;;;;;-1.47;100.00;98050.42;109584;1282;22243;-75
2023/12/08 04:59:17;;;;;;;203.40;111.70;;;;;;;-1.51;100.00;98045.33;109582;1279;22261;-75
2023/12/08 05:01:50;;;;;;;188.50;102.50;;;;;;;-1.58;100.00;98034.96;109583;1283;22913;-75
2023/12/08 05:04:22;;;;;;;191.20;105.60;;;;;;;-1.60;100.00;98035.66;109574;1284;23063;-75
2023/12/08 05:06:50;;;;;;;187.50;104.80;;;;;;;-1.61;100.00;98040.20;109564;1276;23013;-75
2023/12/08 05:09:18;;;;;;;200.90;109.30;;;;;;;-1.63;100.00;98038.84;109574;1287;22259;-75
2023/12/08 05:11:46;;;;;;;202.40;113.10;;;;;;;-1.63;100.00;98043.06;109559;1275;22327;-75
2023/12/08 05:14:14;;;;;;;198.40;111.30;;;;;;;-1.66;100.00;98044.34;109577;1289;23024;-75
2023/12/08 05:16:42;;;;;;;221.20;113.60;;;;;;;-1.71;100.00;98044.28;109579;1280;22337;-75
2023/12/08 05:19:10;;;;;;;205.80;110.50;;;;;;;-1.78;100.00;98044.05;109582;1286;22217;-75
2023/12/08 05:21:38;;;;;;;207.60;111.20;;;;;;;-1.78;100.00;98036.12;109559;1278;22142;-75
2023/12/08 05:24:06;;;;;;;188.00;103.20;;;;;;;-1.79;100.00;98031.37;109593;1286;22275;-74
2023/12/08 05:26:35;;;;;;;200.60;105.40;;;;;;;-1.83;100.00;98030.76;109576;1286;22264;-74
2023/12/08 05:29:03;;;;;;;197.60;109.50;;;;;;;-1.83;100.00;98035.34;109599;1280;22300;-75
2023/12/08 05:31:31;;;;;;;196.50;107.80;;;;;;;-1.81;100.00;98040.95;109575;1282;22205;-74
2023/12/08 05:33:59;;;;;;;198.80;107.30;;;;;;;-1.80;100.00;98040.35;109577;1286;22200;-74
2023/12/08 05:36:28;;;;;;;213.50;110.60;;;;;;;-1.82;100.00;98039.45;109572;1286;22736;-74
2023/12/08 05:38:56;;;;;;;246.00;123.70;;;;;;;-1.86;100.00;98043.75;109575;1279;23024;-75
2023/12/08 05:41:24;;;;;;;238.00;115.30;;;;;;;-1.90;100.00;98041.05;109508;1280;22222;-75
2023/12/08 05:43:52;;;;;;;220.70;107.80;;;;;;;-1.92;100.00;98039.75;109592;1282;22178;-74
2023/12/08 05:46:20;;;;;;;204.80;100.60;;;;;;;-1.94;100.00;98039.23;109577;1280;22260;-74
2023/12/08 05:48:48;;;;;;;222.60;109.20;;;;;;;-1.96;100.00;98035.94;109609;1290;22187;-74
2023/12/08 05:51:16;;;;;;;216.40;104.70;;;;;;;-1.97;100.00;98036.30;109609;1290;22686;-74
2023/12/08 05:53:44;;;;;;;215.00;107.90;;;;;;;-1.94;100.00;98037.79;109579;1283;22211;-75
2023/12/08 05:56:12;;;;;;;236.70;117.30;;;;;;;-1.92;100.00;98046.88;109612;1283;22931;-74
2023/12/08 05:58:40;;;;;;;257.40;124.90;;;;;;;-1.94;100.00;98053.06;109585;1290;23047;-75
2023/12/08 06:01:13;;;;;;;256.20;120.70;;;;;;;-1.92;100.00;98051.95;109568;1286;22290;-74
2023/12/08 06:03:41;;;;;;;253.50;118.80;;;;;;;-1.92;100.00;98048.62;109616;1283;22332;-75
2023/12/08 06:06:09;;;;;;;245.70;115.30;;;;;;;-1.88;100.00;98052.58;109560;1286;22098;-76
2023/12/08 06:08:37;;;;;;;225.30;107.90;;;;;;;-1.85;100.00;98052.83;109544;1290;22108;-74
2023/12/08 06:11:06;;;;;;;237.40;117.90;;;;;;;-1.83;100.00;98053.84;109609;1290;22837;-74
2023/12/08 06:13:34;;;;;;;244.40;118.30;;;;;;;-1.86;100.00;98048.13;109615;1276;22357;-75
2023/12/08 06:16:03;;;;;;;254.90;118.90;;;;;;;-1.88;100.00;98046.35;109629;1290;22160;-74
2023/12/08 06:18:32;;;;;;;227.20;107.40;;;;;;;-1.93;100.00;98045.51;109567;1287;22361;-75
2023/12/08 06:21:00;;;;;;;224.00;106.80;;;;;;;-1.96;100.00;98040.16;109581;1286;22265;-75
2023/12/08 06:23:28;;;;;;;215.00;104.50;;;;;;;-1.96;100.00;98039.48;109572;1277;22734;-75
2023/12/08 06:25:56;;;;;;;207.20;102.20;;;;;;;-1.97;100.00;98033.05;109582;1283;22211;-75
2023/12/08 06:28:24;;;;;;;234.40;111.50;;;;;;;-1.97;100.00;98033.58;109589;1284;22294;-75
2023/12/08 06:30:52;;;;;;;227.10;111.60;;;;;;;-1.99;100.00;98036.70;109590;1290;23071;-76
2023/12/08 06:33:20;;;;;;;235.00;108.90;;;;;;;-2.04;100.00;98037.41;109592;1276;22266;-75
2023/12/08 06:35:48;;;;;;;228.80;109.10;;;;;;;-2.04;100.00;98037.94;109582;1283;22172;-75
2023/12/08 06:38:16;;;;;;;217.00;104.00;;;;;;;-2.04;100.00;98035.18;109532;1283;22248;-74
2023/12/08 06:40:44;;;;;;;229.50;106.30;;;;;;;-2.02;100.00;98038.54;109596;1283;22213;-73
2023/12/08 06:43:12;;;;;;;227.80;106.20;;;;;;;-2.01;100.00;98036.50;109581;1290;22691;-75
2023/12/08 06:45:40;;;;;;;249.00;117.60;;;;;;;-2.02;100.00;98036.59;109595;1282;22938;-75
2023/12/08 06:48:08;;;;;;;241.30;114.30;;;;;;;-2.05;100.00;98036.44;109584;1277;22351;-75
2023/12/08 06:50:37;;;;;;;249.40;119.90;;;;;;;-2.05;100.00;98037.07;109575;1283;22197;-76
2023/12/08 06:53:05;;;;;;;228.00;112.30;;;;;;;-2.01;100.00;98032.80;109569;1290;22225;-75
2023/12/08 06:55:32;;;;;;;229.00;110.20;;;;;;;-1.94;100.00;98034.66;109569;1283;22348;-75
2023/12/08 06:58:01;;;;;;;239.10;119.70;;;;;;;-1.91;100.00;98040.56;109585;1290;22211;-73
2023/12/08 07:00:29;;;;;;;234.70;115.40;;;;;;;-1.90;100.00;98046.05;109572;1290;22310;-73
2023/12/08 07:02:57;;;;;;;245.00;118.80;;;;;;;-1.90;100.00;98045.48;109582;1286;22231;-73
2023/12/08 07:05:25;;;;;;;237.50;114.50;;;;;;;-1.94;100.00;98042.62;109583;1279;22944;-74
2023/12/08 07:07:55;;;;;;;226.80;109.80;;;;;;;-1.93;100.00;98044.33;109581;1280;22161;-75
2023/12/08 07:10:23;;;;;;;219.20;110.20;;;;;;;-1.91;100.00;98042.80;109584;1284;22255;-74
2023/12/08 07:12:51;;;;;;;204.40;101.80;;;;;;;-1.87;100.00;98047.12;109595;1290;22123;-74
2023/12/08 07:15:20;;;;;;;195.70;100.10;;;;;;;-1.87;100.00;98050.54;109586;1276;22212;-75
2023/12/08 07:17:48;;;;;;;207.10;106.10;;;;;;;-1.88;100.00;98059.40;109584;1283;22215;-76
2023/12/08 07:20:18;;;;;;;213.10;109.40;;;;;;;-1.91;100.00;98064.09;109576;1282;22290;-76
2023/12/08 07:22:46;;;;;;;210.90;115.00;;;;;;;-1.93;100.00;98064.39;109565;1287;22952;-77
2023/12/08 07:25:15;;;;;;;198.70;103.10;;;;;;;-1.96;100.00;98067.41;109560;1280;22263;-76
2023/12/08 07:27:43;;;;;;;175.70;95.30;;;;;;;-1.98;100.00;98072.27;109560;1276;22209;-76
2023/12/08 07:30:11;;;;;;;162.60;90.80;;;;;;;-1.99;100.00;98073.49;109536;1277;22217;-76
2023/12/08 07:32:40;;;;;;;164.30;94.10;;;;;;;-1.99;100.00;98071.75;109525;1283;22260;-77
2023/12/08 07:35:08;;;;;;;151.80;88.60;;;;;;;-2.00;100.00;98074.48;109584;1286;22209;-76
2023/12/08 07:37:40;;;;;;;164.60;93.60;;;;;;;-1.93;100.00;98073.45;109581;1283;23050;-77
2023/12/08 07:40:09;;;;;;;157.60;91.20;;;;;;;-1.89;100.00;98069.65;109581;1282;22909;-76
2023/12/08 07:42:37;;;;;;;180.60;100.90;;;;;;;-1.80;100.00;98078.27;109575;1282;22896;-76
2023/12/08 07:45:05;;;;;;;189.10;104.20;;;;;;;-1.75;100.00;98076.05;109584;1284;22212;-76
2023/12/08 07:47:34;;;;;;;186.00;102.40;;;;;;;-1.74;100.00;98073.52;109570;1280;23067;-76
2023/12/08 07:50:02;;;;;;;167.90;94.40;;;;;;;-1.71;100.00;98076.42;109398;1284;22259;-76
2023/12/08 07:52:31;;;;;;;144.60;87.00;;;;;;;-1.64;100.00;98072.73;109590;1283;22688;-76
2023/12/08 07:54:59;;;;;;;131.40;83.30;;;;;;;-1.59;100.00;98068.28;109566;1290;22241;-77
2023/12/08 07:57:28;;;;;;;159.70;90.60;;;;;;;-1.59;100.00;98068.44;109555;1284;22257;-77
2023/12/08 07:59:56;;;;;;;164.90;92.10;;;;;;;-1.57;100.00;98068.34;109587;1283;22139;-75
2023/12/08 08:02:24;;;;;;;155.10;85.40;;;;;;;-1.58;100.00;98062.77;109569;1290;22185;-75
2023/12/08 08:04:52;;;;;;;136.50;80.10;;;;;;;-1.59;100.00;98065.80;109586;1282;22240;-76
2023/12/08 08:07:20;;;;;;;132.90;81.60;;;;;;;-1.60;100.00;98061.98;109579;1286;22225;-75
2023/12/08 08:09:49;;;;;;;108.40;73.90;;;;;;;-1.56;100.00;98056.06;109582;1283;22837;-76
2023/12/08 08:12:17;;;;;;;85.30;69.50;;;;;;;-1.55;100.00;98056.66;109580;1278;22406;-76
2023/12/08 08:14:45;;;;;;;100.20;74.50;;;;;;;-1.52;100.00;98060.30;109592;1290;22220;-76
2023/12/08 08:17:13;;;;;;;123.00;84.60;;;;;;;-1.52;100.00;98061.95;109565;1276;22148;-76
2023/12/08 08:19:41;;;;;;;111.60;79.20;;;;;;;-1.53;100.00;98056.73;109572;1286;22273;-78
2023/12/08 08:22:10;;;;;;;98.00;69.00;;;;;;;-1.52;100.00;98048.84;109487;1283;22221;-77
2023/12/08 08:25:01;;;;;;;94.70;71.20;;;;;;;-1.56;100.00;98047.23;109561;1276;22211;-76
2023/12/08 08:27:29;;;;;;;108.00;71.30;;;;;;;-1.57;100.00;98045.34;109537;1276;23056;-76
2023/12/08 08:29:59;;;;;;;87.60;65.90;;;;;;;-1.56;100.00;98045.27;109568;1276;22216;-76
2023/12/08 08:32:27;;;;;;;84.80;66.80;;;;;;;-1.57;100.00;98046.03;109535;1290;22226;-77
2023/12/08 08:34:55;;;;;;;90.80;67.20;;;;;;;-1.63;100.00;98043.38;109570;1282;22271;-77
2023/12/08 08:37:26;;;;;;;80.50;62.60;;;;;;;-1.64;100.00;98037.59;109471;1283;23440;-77
2023/12/08 08:39:54;;;;;;;76.40;63.90;;;;;;;-1.59;100.00;98036.16;109413;1277;22915;-77
2023/12/08 08:42:23;;;;;;;67.00;57.00;;;;;;;-1.56;100.00;98036.38;109513;1276;22213;-77
2023/12/08 08:44:51;;;;;;;67.70;59.90;;;;;;;-1.55;100.00;98038.81;109554;1287;22963;-77
2023/12/08 08:47:19;;;;;;;64.60;57.50;;;;;;;-1.53;100.00;98035.70;109491;1289;22982;-77
2023/12/08 08:49:47;;;;;;;62.70;55.70;;;;;;;-1.50;100.00;98033.41;109558;1290;22819;-77
2023/12/08 08:52:16;;;;;;;67.00;55.40;;;;;;;-1.47;100.00;98037.48;109535;1278;22991;-75
2023/12/08 08:54:45;;;;;;;66.50;55.00;;;;;;;-1.42;100.00;98043.08;109367;1286;22147;-75
2023/12/08 08:57:13;;;;;;;69.00;59.50;;;;;;;-1.42;100.00;98040.61;109599;1282;22159;-76
2023/12/08 08:59:41;;;;;;;74.40;62.50;;;;;;;-1.37;100.00;98039.54;109528;1290;22207;-75
2023/12/08 09:02:09;;;;;;;81.30;66.40;;;;;;;-1.30;100.00;98039.17;109562;1277;22171;-76
2023/12/08 09:04:37;;;;;;;79.30;62.90;;;;;;;-1.21;100.00;98041.95;109565;1278;22203;-76
2023/12/08 09:07:05;;;;;;;72.60;60.70;;;;;;;-1.17;100.00;98039.86;109556;1280;22235;-77
2023/12/08 09:09:34;;;;;;;80.70;64.00;;;;;;;-1.15;100.00;98038.91;109539;1283;22347;-76
2023/12/08 09:12:03;;;;;;;74.20;64.00;;;;;;;-1.15;100.00;98033.49;109566;1283;22227;-76
2023/12/08 09:14:33;;;;;;;85.20;67.40;;;;;;;-1.16;100.00;98038.36;109586;1279;22935;-75
2023/12/08 09:17:05;;;;;;;86.40;69.70;;;;;;;-1.17;100.00;98037.98;109593;1283;22950;-75
2023/12/08 09:19:35;;;;;;;87.00;65.30;;;;;;;-1.17;100.00;98037.59;109578;1286;23085;-76
2023/12/08 09:22:03;;;;;;;85.40;66.30;;;;;;;-1.13;100.00;98033.03;109588;1286;22785;-76
2023/12/08 09:24:31;;;;;;;97.10;70.80;;;;;;;-1.04;100.00;98024.36;109401;1284;22923;-77
2023/12/08 09:27:01;;;;;;;78.40;66.60;;;;;;;-0.94;100.00;98018.94;109525;1274;22846;-77
2023/12/08 09:29:29;;;;;;;85.30;68.50;;;;;;;-0.90;100.00;98016.77;109581;1286;22261;-77
2023/12/08 09:31:57;;;;;;;103.50;72.30;;;;;;;-0.96;100.00;98004.23;109392;1283;22199;-77
2023/12/08 09:34:25;;;;;;;95.10;69.90;;;;;;;-0.96;100.00;98007.92;109570;1290;22243;-75
2023/12/08 09:36:54;;;;;;;89.50;65.80;;;;;;;-0.94;100.00;97997.84;109573;1274;22238;-77
2023/12/08 09:39:42;;;;;;;90.90;67.30;;;;;;;-0.98;100.00;97990.25;109562;1282;22809;-78
2023/12/08 09:42:32;;;;;;;94.50;74.50;;;;;;;-0.97;100.00;97986.80;109602;1290;22928;-76
2023/12/08 09:45:04;;;;;;;104.70;75.80;;;;;;;-0.91;100.00;97977.80;109629;1289;22414;-77
2023/12/08 09:47:34;;;;;;;84.10;66.60;;;;;;;-0.89;100.00;97977.22;109590;1290;22836;-77
2023/12/08 09:50:06;;;;;;;81.40;69.80;;;;;;;-0.95;100.00;97981.31;109572;1282;22301;-76
2023/12/08 09:52:35;;;;;;;78.70;64.10;;;;;;;-1.04;100.00;97984.60;109569;1278;22390;-76
2023/12/08 09:55:05;;;;;;;85.00;67.50;;;;;;;-1.03;100.00;97982.23;109567;1290;22170;-76
2023/12/08 09:57:34;;;;;;;78.20;63.00;;;;;;;-0.99;100.00;97980.08;109572;1282;22246;-76
2023/12/08 10:00:11;;;;;;;87.90;68.70;;;;;;;-0.97;100.00;97984.15;109405;1276;23004;-77
2023/12/08 10:02:40;;;;;;;74.50;65.30;;;;;;;-0.95;100.00;97981.52;109576;1283;22237;-77
2023/12/08 10:05:10;;;;;;;89.30;70.90;;;;;;;-0.99;100.00;97981.77;109573;1282;22284;-77
2023/12/08 10:07:43;;;;;;;85.50;69.30;;;;;;;-1.07;100.00;97981.17;109538;1283;22450;-77
2023/12/08 10:10:12;;;;;;;77.40;64.80;;;;;;;-1.10;100.00;97983.45;109554;1283;22190;-76
2023/12/08 10:12:40;;;;;;;88.10;68.10;;;;;;;-1.08;100.00;97987.38;109411;1286;23059;-77
2023/12/08 10:15:10;;;;;;;78.10;66.70;;;;;;;-1.01;100.00;97996.94;109612;1274;22145;-78
2023/12/08 10:17:51;;;;;;;81.50;71.50;;;;;;;-0.91;100.00;98006.16;109460;1290;22113;-76
2023/12/08 10:20:21;;;;;;;99.10;74.60;;;;;;;-0.79;100.00;98003.17;109577;1276;22224;-76
2023/12/08 10:22:51;;;;;;;96.60;76.60;;;;;;;-0.74;100.00;98002.54;109563;1283;22228;-77
2023/12/08 10:25:22;;;;;;;90.40;70.70;;;;;;;-0.67;100.00;98006.23;109383;1290;22232;-77
2023/12/08 10:27:54;;;;;;;78.10;69.70;;;;;;;-0.59;100.00;98007.81;109403;1290;22231;-78
2023/12/08 10:30:25;;;;;;;102.10;75.10;;;;;;;-0.55;100.00;98006.66;109582;1286;22287;-77
2023/12/08 10:32:54;;;;;;;103.10;77.50;;;;;;;-0.51;100.00;98010.30;109429;1290;22260;-77
2023/12/08 10:35:23;;;;;;;102.90;78.50;;;;;;;-0.44;100.00;98009.96;109574;1290;22344;-77
2023/12/08 10:37:51;;;;;;;104.00;77.20;;;;;;;-0.35;100.00;98009.92;109583;1274;22206;-77
2023/12/08 10:40:21;;;;;;;97.90;74.40;;;;;;;-0.36;100.00;98006.99;109617;1290;23271;-77
2023/12/08 10:42:49;;;;;;;104.40;75.20;;;;;;;-0.37;100.00;98006.75;109611;1282;22217;-76
2023/12/08 10:45:18;;;;;;;87.90;73.30;;;;;;;-0.32;100.00;97998.14;109612;1289;22807;-76
2023/12/08 10:47:49;;;;;;;90.50;72.00;;;;;;;-0.28;100.00;97996.39;109607;1290;22827;-76
2023/12/08 10:50:19;;;;;;;98.00;74.30;;;;;;;-0.18;100.00;97996.55;109615;1290;22924;-76
2023/12/08 10:52:49;;;;;;;86.10;71.20;;;;;;;-0.15;100.00;97992.31;109553;1290;22234;-77
2023/12/08 10:55:17;;;;;;;84.80;71.00;;;;;;;-0.14;100.00;97985.83;109567;1283;22865;-77
2023/12/08 10:57:48;;;;;;;88.70;69.40;;;;;;;-0.10;100.00;97986.37;109492;1290;22206;-76
2023/12/08 11:00:19;;;;;;;80.80;68.60;;;;;;;-0.01;100.00;97984.30;109581;1274;22276;-77